^^
Your Local Weather - Clay, NY Station Historical Data
Daily Summary for March 1, 2018 Units:  English    Metric   Both
« Previous Day
Next Day »
Daily Weekly Monthly Yearly Custom
  High: Low: Average:
Temperature: 48.1 °F 33.5 °F 37.3 °F
Dew Point: 41.6 °F 30.1 °F 32.3 °F
Humidity: 88% 75% 82%
Wind Speed: 7.0mph 0.0mph 1.3mph
Wind Gust: 14.0mph - -
Wind- - SSW
Pressure: 29.93 in 29.60 in -
Precipitation: 0.10 in    
Historical Graphs
 
 
Tabular Data for March 1, 2018
Time Temperature Dew Point Pressure Wind Wind Speed Wind Gust Humidity Rainfall Rate (Hourly) solar
00:00 48.1 °F 41.6 °F 29.81 in WNW 3.0 mph 3.0 mph 78% 0.00 in 0 W/m2
00:06 47.7 °F 41.2 °F 29.81 in NW 2.0 mph 4.0 mph 78% 0.00 in 0 W/m2
00:12 47.4 °F 40.9 °F 29.81 in NW 3.0 mph 4.0 mph 78% 0.00 in 0 W/m2
00:18 47.0 °F 40.5 °F 29.81 in NW 2.0 mph 5.0 mph 78% 0.00 in 0 W/m2
00:24 46.7 °F 40.5 °F 29.81 in NW 1.0 mph 2.0 mph 79% 0.00 in 0 W/m2
00:30 46.5 °F 40.3 °F 29.81 in NW 1.0 mph 4.0 mph 79% 0.00 in 0 W/m2
00:36 46.3 °F 40.1 °F 29.81 in NW 1.0 mph 4.0 mph 79% 0.00 in 0 W/m2
00:42 46.0 °F 39.9 °F 29.81 in NW 1.0 mph 3.0 mph 79% 0.00 in 0 W/m2
00:48 45.7 °F 39.6 °F 29.82 in NW 2.0 mph 3.0 mph 79% 0.00 in 0 W/m2
00:54 45.4 °F 38.6 °F 29.82 in WNW 3.0 mph 4.0 mph 77% 0.00 in 0 W/m2
01:00 45.2 °F 38.4 °F 29.82 in WNW 3.0 mph 4.0 mph 77% 0.00 in 0 W/m2
01:06 44.9 °F 37.8 °F 29.82 in WNW 3.0 mph 5.0 mph 76% 0.00 in 0 W/m2
01:12 44.5 °F 37.4 °F 29.83 in WNW 3.0 mph 3.0 mph 76% 0.00 in 0 W/m2
01:18 43.8 °F 36.7 °F 29.83 in WNW 2.0 mph 3.0 mph 76% 0.00 in 0 W/m2
01:24 43.3 °F 36.2 °F 29.84 in WNW 3.0 mph 4.0 mph 76% 0.00 in 0 W/m2
01:30 42.9 °F 35.9 °F 29.84 in WNW 3.0 mph 3.0 mph 76% 0.00 in 0 W/m2
01:36 42.5 °F 35.5 °F 29.84 in WNW 2.0 mph 3.0 mph 76% 0.00 in 0 W/m2
01:42 42.0 °F 35.3 °F 29.83 in WNW 2.0 mph 3.0 mph 77% 0.00 in 0 W/m2
01:48 41.6 °F 35.2 °F 29.83 in WNW 3.0 mph 4.0 mph 78% 0.00 in 0 W/m2
01:54 41.2 °F 34.9 °F 29.84 in WNW 2.0 mph 3.0 mph 78% 0.00 in 0 W/m2
02:00 40.8 °F 34.8 °F 29.84 in WNW 2.0 mph 2.0 mph 79% 0.00 in 0 W/m2
02:06 40.4 °F 34.4 °F 29.84 in WNW 2.0 mph 2.0 mph 79% 0.00 in 0 W/m2
02:12 40.0 °F 34.3 °F 29.84 in WNW 2.0 mph 3.0 mph 80% 0.00 in 0 W/m2
02:18 39.5 °F 34.2 °F 29.84 in WNW 2.0 mph 3.0 mph 81% 0.00 in 0 W/m2
02:24 39.3 °F 34.3 °F 29.84 in WNW 1.0 mph 3.0 mph 82% 0.00 in 0 W/m2
02:30 39.0 °F 34.0 °F 29.84 in WNW 1.0 mph 1.0 mph 82% 0.00 in 0 W/m2
02:36 38.8 °F 34.1 °F 29.84 in WNW 2.0 mph 4.0 mph 83% 0.00 in 0 W/m2
02:42 38.5 °F 33.8 °F 29.84 in WNW 1.0 mph 1.0 mph 83% 0.00 in 0 W/m2
02:48 38.2 °F 33.8 °F 29.84 in WNW 1.0 mph 3.0 mph 84% 0.00 in 0 W/m2
02:54 37.8 °F 33.4 °F 29.84 in WNW 1.0 mph 1.0 mph 84% 0.00 in 0 W/m2
03:00 37.5 °F 33.4 °F 29.84 in Calm   3.0 mph 85% 0.00 in 0 W/m2
03:06 37.5 °F 33.7 °F 29.84 in NNW 2.0 mph 4.0 mph 86% 0.00 in 0 W/m2
03:12 37.5 °F 34.0 °F 29.84 in North 3.0 mph 3.0 mph 87% 0.00 in 0 W/m2
03:18 37.5 °F 34.0 °F 29.85 in North 2.0 mph 3.0 mph 87% 0.00 in 0 W/m2
03:24 37.5 °F 34.0 °F 29.85 in NW 1.0 mph 2.0 mph 87% 0.00 in 0 W/m2
03:30 37.4 °F 34.2 °F 29.85 in NW 1.0 mph 1.0 mph 88% 0.00 in 0 W/m2
03:36 37.3 °F 34.1 °F 29.85 in NW 1.0 mph 3.0 mph 88% 0.00 in 0 W/m2
03:42 36.9 °F 33.7 °F 29.85 in NW 2.0 mph 3.0 mph 88% 0.00 in 0 W/m2
03:48 36.4 °F 32.9 °F 29.85 in NNW 2.0 mph 3.0 mph 87% 0.00 in 0 W/m2
03:54 36.0 °F 32.5 °F 29.85 in NNW 2.0 mph 2.0 mph 87% 0.00 in 0 W/m2
04:10 35.4 °F 31.9 °F 29.86 in WNW 1.0 mph 6.0 mph 87% 0.00 in 0 W/m2
04:16 35.2 °F 31.4 °F 29.86 in NW 2.0 mph 6.0 mph 86% 0.00 in 0 W/m2
04:22 35.0 °F 31.2 °F 29.86 in NNW 2.0 mph 2.0 mph 86% 0.00 in 0 W/m2
04:28 34.8 °F 31.0 °F 29.86 in NNW 1.0 mph 2.0 mph 86% 0.00 in 0 W/m2
04:34 34.7 °F 30.9 °F 29.86 in NNW 1.0 mph 2.0 mph 86% 0.00 in 0 W/m2
04:40 34.5 °F 30.7 °F 29.86 in NNW 1.0 mph 1.0 mph 86% 0.00 in 0 W/m2
04:46 34.3 °F 30.5 °F 29.87 in NNW 1.0 mph 2.0 mph 86% 0.00 in 0 W/m2
04:52 34.1 °F 30.4 °F 29.86 in NNW 1.0 mph 1.0 mph 86% 0.00 in 0 W/m2
05:00 33.9 °F 30.4 °F 29.87 in NNW 2.0 mph 2.0 mph 87% 0.00 in 0 W/m2
05:06 33.8 °F 30.3 °F 29.87 in NNW 1.0 mph 2.0 mph 87% 0.00 in 0 W/m2
05:12 33.7 °F 30.2 °F 29.88 in NNW 1.0 mph 2.0 mph 87% 0.00 in 0 W/m2
05:14 33.6 °F 30.1 °F 29.88 in NNW 1.0 mph 3.0 mph 87% 0.00 in 0 W/m2
05:20 33.6 °F 30.1 °F 29.89 in NNW 2.0 mph 2.0 mph 87% 0.00 in 0 W/m2
05:26 33.6 °F 30.1 °F 29.90 in NNW 1.0 mph 4.0 mph 87% 0.00 in 0 W/m2
05:32 33.6 °F 30.1 °F 29.89 in NNW 1.0 mph 1.0 mph 87% 0.00 in 0 W/m2
05:38 33.7 °F 30.2 °F 29.90 in NNW 2.0 mph 4.0 mph 87% 0.00 in 0 W/m2
05:44 33.7 °F 30.2 °F 29.91 in NNW 2.0 mph 3.0 mph 87% 0.00 in 0 W/m2
05:50 33.7 °F 30.2 °F 29.91 in NNW 2.0 mph 2.0 mph 87% 0.00 in 0 W/m2
05:56 33.7 °F 30.5 °F 29.92 in NNW 2.0 mph 3.0 mph 88% 0.00 in 0 W/m2
06:02 33.8 °F 30.3 °F 29.92 in NNW 2.0 mph 3.0 mph 87% 0.00 in 0 W/m2
06:08 33.8 °F 30.6 °F 29.92 in NNW 1.0 mph 3.0 mph 88% 0.00 in 0 W/m2
06:14 33.8 °F 30.6 °F 29.91 in NNW 1.0 mph 3.0 mph 88% 0.00 in 0 W/m2
06:20 33.8 °F 30.6 °F 29.90 in NNW 2.0 mph 2.0 mph 88% 0.00 in 0 W/m2
06:26 33.6 °F 30.4 °F 29.89 in NNW 3.0 mph 3.0 mph 88% 0.00 in 0 W/m2
06:32 33.6 °F 30.1 °F 29.89 in NW 3.0 mph 3.0 mph 87% 0.00 in 0 W/m2
06:38 33.5 °F 30.3 °F 29.90 in NW 2.0 mph 6.0 mph 88% 0.00 in 0 W/m2
06:44 33.5 °F 30.3 °F 29.90 in NW 2.0 mph 2.0 mph 88% 0.00 in 0 W/m2
06:50 33.5 °F 30.3 °F 29.92 in NW 2.0 mph 2.0 mph 88% 0.00 in 0 W/m2
06:56 33.6 °F 30.4 °F 29.92 in NW 1.0 mph 2.0 mph 88% 0.00 in 5 W/m2
07:02 33.7 °F 30.5 °F 29.92 in Calm     88% 0.00 in 9 W/m2
07:08 33.7 °F 30.5 °F 29.92 in Calm     88% 0.00 in 12 W/m2
07:14 33.7 °F 30.5 °F 29.92 in WNW 1.0 mph 2.0 mph 88% 0.00 in 18 W/m2
07:22 33.9 °F 30.7 °F 29.92 in Calm   1.0 mph 88% 0.00 in 21 W/m2
07:28 33.9 °F 30.7 °F 29.92 in WNW 1.0 mph 3.0 mph 88% 0.00 in 21 W/m2
07:34 33.8 °F 30.6 °F 29.92 in WNW 2.0 mph 3.0 mph 88% 0.00 in 21 W/m2
07:40 33.7 °F 30.5 °F 29.92 in WNW 2.0 mph 2.0 mph 88% 0.00 in 28 W/m2
07:46 33.8 °F 30.6 °F 29.91 in WNW 2.0 mph 2.0 mph 88% 0.00 in 32 W/m2
07:52 33.7 °F 30.5 °F 29.91 in WNW 1.0 mph 1.0 mph 88% 0.00 in 32 W/m2
07:58 33.8 °F 30.6 °F 29.91 in Calm   1.0 mph 88% 0.00 in 26 W/m2
08:06 33.9 °F 30.7 °F 29.91 in Calm     88% 0.00 in 46 W/m2
08:12 34.0 °F 30.8 °F 29.92 in WNW 1.0 mph 2.0 mph 88% 0.00 in 44 W/m2
08:18 33.9 °F 30.4 °F 29.92 in WNW 1.0 mph 2.0 mph 87% 0.00 in 42 W/m2
08:24 33.9 °F 30.4 °F 29.92 in WNW 1.0 mph 3.0 mph 87% 0.00 in 46 W/m2
08:30 33.9 °F 30.4 °F 29.92 in WNW 1.0 mph 2.0 mph 87% 0.00 in 63 W/m2
08:38 34.0 °F 30.5 °F 29.92 in WNW 2.0 mph 3.0 mph 87% 0.00 in 63 W/m2
08:44 34.0 °F 30.5 °F 29.92 in WNW 2.0 mph 4.0 mph 87% 0.00 in 74 W/m2
08:50 34.0 °F 30.5 °F 29.92 in WNW 1.0 mph 1.0 mph 87% 0.00 in 70 W/m2
08:56 34.1 °F 30.6 °F 29.92 in WNW 1.0 mph 2.0 mph 87% 0.00 in 81 W/m2
09:02 34.2 °F 30.7 °F 29.92 in WNW 1.0 mph 1.0 mph 87% 0.00 in 69 W/m2
09:08 34.4 °F 30.9 °F 29.92 in Calm   3.0 mph 87% 0.00 in 63 W/m2
09:14 34.3 °F 30.8 °F 29.91 in WNW 1.0 mph 4.0 mph 87% 0.00 in 51 W/m2
09:20 34.3 °F 30.8 °F 29.91 in WNW 1.0 mph 1.0 mph 87% 0.00 in 53 W/m2
09:26 34.4 °F 30.9 °F 29.90 in Calm   1.0 mph 87% 0.00 in 49 W/m2
09:32 34.4 °F 30.9 °F 29.91 in Calm   2.0 mph 87% 0.00 in 56 W/m2
09:38 34.5 °F 31.0 °F 29.92 in WNW 1.0 mph 2.0 mph 87% 0.00 in 53 W/m2
09:44 34.6 °F 31.1 °F 29.92 in Calm   2.0 mph 87% 0.00 in 46 W/m2
09:50 34.6 °F 31.1 °F 29.91 in WNW 1.0 mph 1.0 mph 87% 0.00 in 53 W/m2
09:56 34.5 °F 30.7 °F 29.92 in WNW 1.0 mph 1.0 mph 86% 0.00 in 54 W/m2
10:02 34.6 °F 30.8 °F 29.93 in Calm     86% 0.00 in 58 W/m2
10:08 34.6 °F 30.8 °F 29.93 in WNW 1.0 mph 3.0 mph 86% 0.00 in 72 W/m2
10:14 34.6 °F 30.8 °F 29.93 in WNW 2.0 mph 2.0 mph 86% 0.00 in 72 W/m2
10:20 34.6 °F 30.8 °F 29.93 in WNW 1.0 mph 2.0 mph 86% 0.00 in 69 W/m2
10:26 34.8 °F 31.0 °F 29.93 in WNW 1.0 mph 3.0 mph 86% 0.00 in 135 W/m2
10:32 35.1 °F 31.3 °F 29.92 in WNW 1.0 mph 2.0 mph 86% 0.00 in 197 W/m2
10:38 35.2 °F 31.4 °F 29.92 in WNW 1.0 mph 2.0 mph 86% 0.00 in 153 W/m2
10:44 35.5 °F 31.7 °F 29.92 in WNW 1.0 mph 2.0 mph 86% 0.00 in 132 W/m2
10:50 35.4 °F 31.3 °F 29.92 in Calm     85% 0.00 in 123 W/m2
10:56 35.6 °F 31.5 °F 29.92 in Calm     85% 0.00 in 111 W/m2
11:02 35.7 °F 31.6 °F 29.92 in WNW 1.0 mph 2.0 mph 85% 0.00 in 125 W/m2
11:08 35.8 °F 31.7 °F 29.92 in WNW 2.0 mph 2.0 mph 85% 0.00 in 109 W/m2
11:14 35.9 °F 31.8 °F 29.92 in WNW 1.0 mph 2.0 mph 85% 0.00 in 93 W/m2
11:20 36.0 °F 31.9 °F 29.92 in Calm     85% 0.00 in 62 W/m2
11:26 36.0 °F 31.9 °F 29.92 in Calm     85% 0.00 in 51 W/m2
11:32 35.9 °F 31.5 °F 29.92 in Calm     84% 0.00 in 77 W/m2
11:38 36.0 °F 31.6 °F 29.92 in Calm     84% 0.00 in 74 W/m2
11:44 36.2 °F 31.8 °F 29.90 in Calm   1.0 mph 84% 0.00 in 86 W/m2
11:50 36.1 °F 31.7 °F 29.90 in Calm     84% 0.00 in 97 W/m2
11:56 36.2 °F 31.8 °F 29.90 in WNW 1.0 mph 1.0 mph 84% 0.00 in 102 W/m2
12:02 36.3 °F 31.9 °F 29.90 in Calm   2.0 mph 84% 0.00 in 102 W/m2
12:08 36.4 °F 32.0 °F 29.90 in Calm   2.0 mph 84% 0.00 in 100 W/m2
12:14 36.5 °F 32.1 °F 29.90 in NE 1.0 mph 3.0 mph 84% 0.00 in 113 W/m2
12:20 36.7 °F 32.3 °F 29.89 in NE 2.0 mph 2.0 mph 84% 0.00 in 132 W/m2
12:26 36.8 °F 32.4 °F 29.89 in NE 2.0 mph 3.0 mph 84% 0.00 in 162 W/m2
12:32 37.2 °F 32.8 °F 29.89 in ENE 2.0 mph 3.0 mph 84% 0.00 in 151 W/m2
12:38 37.2 °F 32.5 °F 29.89 in ENE 2.0 mph 3.0 mph 83% 0.00 in 113 W/m2
12:44 37.3 °F 32.6 °F 29.89 in ENE 2.0 mph 2.0 mph 83% 0.00 in 100 W/m2
12:50 37.3 °F 32.6 °F 29.89 in NE 2.0 mph 2.0 mph 83% 0.00 in 105 W/m2
12:56 37.3 °F 32.6 °F 29.89 in NE 2.0 mph 8.0 mph 83% 0.00 in 98 W/m2
13:02 37.2 °F 32.5 °F 29.89 in ENE 2.0 mph 3.0 mph 83% 0.00 in 123 W/m2
13:08 37.3 °F 32.6 °F 29.89 in NE 2.0 mph 3.0 mph 83% 0.00 in 127 W/m2
13:14 37.3 °F 32.6 °F 29.89 in ESE 2.0 mph 3.0 mph 83% 0.00 in 105 W/m2
13:20 37.3 °F 32.6 °F 29.88 in ESE 2.0 mph 2.0 mph 83% 0.00 in 186 W/m2
13:26 37.5 °F 32.8 °F 29.88 in SE 2.0 mph 4.0 mph 83% 0.00 in 272 W/m2
13:32 37.8 °F 33.1 °F 29.87 in SE 2.0 mph 3.0 mph 83% 0.00 in 260 W/m2
13:38 38.0 °F 33.0 °F 29.86 in SE 2.0 mph 6.0 mph 82% 0.00 in 274 W/m2
13:44 38.2 °F 33.2 °F 29.86 in SE 2.0 mph 4.0 mph 82% 0.00 in 279 W/m2
13:50 38.6 °F 33.6 °F 29.85 in NNE 2.0 mph 2.0 mph 82% 0.00 in 274 W/m2
13:56 38.8 °F 33.2 °F 29.84 in NE 1.0 mph 2.0 mph 80% 0.00 in 278 W/m2
14:02 38.8 °F 33.2 °F 29.84 in East 2.0 mph 2.0 mph 80% 0.00 in 301 W/m2
14:08 38.7 °F 32.7 °F 29.84 in ENE 2.0 mph 3.0 mph 79% 0.00 in 225 W/m2
14:14 38.8 °F 32.8 °F 29.84 in NNE 2.0 mph 5.0 mph 79% 0.00 in 209 W/m2
14:20 39.1 °F 33.1 °F 29.83 in SE 3.0 mph 3.0 mph 79% 0.00 in 207 W/m2
14:26 39.0 °F 32.7 °F 29.83 in ENE 2.0 mph 3.0 mph 78% 0.00 in 192 W/m2
14:32 39.1 °F 32.8 °F 29.83 in SSE 2.0 mph 2.0 mph 78% 0.00 in 174 W/m2
14:38 39.0 °F 32.7 °F 29.83 in South 3.0 mph 4.0 mph 78% 0.00 in 174 W/m2
14:44 39.0 °F 32.4 °F 29.83 in ESE 3.0 mph 3.0 mph 77% 0.00 in 207 W/m2
14:50 39.1 °F 32.5 °F 29.82 in SE 2.0 mph 2.0 mph 77% 0.00 in 172 W/m2
14:56 39.2 °F 32.6 °F 29.81 in SE 1.0 mph 2.0 mph 77% 0.00 in 148 W/m2
15:02 39.2 °F 32.3 °F 29.81 in Calm     76% 0.00 in 128 W/m2
15:08 39.2 °F 32.3 °F 29.80 in Calm   3.0 mph 76% 0.00 in 118 W/m2
15:14 39.3 °F 32.4 °F 29.80 in ESE 1.0 mph 2.0 mph 76% 0.00 in 116 W/m2
15:20 39.2 °F 32.3 °F 29.80 in ESE 1.0 mph 2.0 mph 76% 0.00 in 100 W/m2
15:26 39.3 °F 32.4 °F 29.79 in ESE 1.0 mph 3.0 mph 76% 0.00 in 83 W/m2
15:32 39.2 °F 32.3 °F 29.79 in ESE 1.0 mph 1.0 mph 76% 0.00 in 70 W/m2
15:38 39.3 °F 32.4 °F 29.78 in Calm   2.0 mph 76% 0.00 in 72 W/m2
15:44 39.4 °F 32.5 °F 29.78 in ESE 1.0 mph 1.0 mph 76% 0.00 in 63 W/m2
15:50 39.4 °F 32.5 °F 29.78 in Calm   1.0 mph 76% 0.00 in 56 W/m2
15:56 39.2 °F 32.3 °F 29.78 in ESE 1.0 mph 2.0 mph 76% 0.00 in 54 W/m2
16:02 39.1 °F 32.2 °F 29.78 in ESE 2.0 mph 2.0 mph 76% 0.00 in 51 W/m2
16:08 39.1 °F 32.5 °F 29.77 in SE 1.0 mph 3.0 mph 77% 0.00 in 51 W/m2
16:14 38.9 °F 32.0 °F 29.77 in SE 2.0 mph 3.0 mph 76% 0.00 in 47 W/m2
16:20 38.9 °F 32.3 °F 29.77 in SE 2.0 mph 2.0 mph 77% 0.00 in 42 W/m2
16:26 38.9 °F 32.3 °F 29.76 in SE 1.0 mph 2.0 mph 77% 0.00 in 37 W/m2
16:32 38.8 °F 32.2 °F 29.76 in SE 1.0 mph 2.0 mph 77% 0.00 in 33 W/m2
16:38 38.8 °F 32.2 °F 29.75 in Calm   2.0 mph 77% 0.00 in 30 W/m2
16:44 38.9 °F 32.3 °F 29.75 in Calm     77% 0.00 in 26 W/m2
16:50 38.8 °F 32.2 °F 29.75 in Calm     77% 0.00 in 23 W/m2
16:56 38.8 °F 32.2 °F 29.75 in Calm     77% 0.00 in 21 W/m2
17:02 38.8 °F 32.2 °F 29.75 in Calm     77% 0.00 in 18 W/m2
17:08 38.8 °F 32.2 °F 29.75 in Calm     77% 0.00 in 16 W/m2
17:14 38.7 °F 32.1 °F 29.75 in Calm     77% 0.00 in 12 W/m2
17:20 38.7 °F 32.1 °F 29.74 in Calm     77% 0.00 in 11 W/m2
17:26 38.6 °F 32.0 °F 29.74 in Calm     77% 0.00 in 9 W/m2
17:32 38.6 °F 32.0 °F 29.74 in Calm     77% 0.00 in 7 W/m2
17:38 38.6 °F 32.3 °F 29.74 in Calm     78% 0.00 in 5 W/m2
17:44 38.5 °F 32.2 °F 29.74 in Calm     78% 0.00 in 0 W/m2
17:50 38.4 °F 32.1 °F 29.74 in Calm     78% 0.00 in 0 W/m2
17:54 38.3 °F 32.0 °F 29.74 in Calm     78% 0.00 in 0 W/m2
18:00 38.2 °F 31.9 °F 29.74 in Calm     78% 0.00 in 0 W/m2
18:06 38.2 °F 32.3 °F 29.74 in Calm     79% 0.00 in 0 W/m2
18:12 38.0 °F 32.1 °F 29.74 in Calm     79% 0.00 in 0 W/m2
18:18 37.9 °F 32.3 °F 29.74 in Calm     80% 0.00 in 0 W/m2
18:24 37.8 °F 32.2 °F 29.74 in Calm   2.0 mph 80% 0.00 in 0 W/m2
18:30 37.7 °F 32.1 °F 29.74 in NE 1.0 mph 2.0 mph 80% 0.00 in 0 W/m2
18:36 37.6 °F 32.0 °F 29.74 in NE 1.0 mph 2.0 mph 80% 0.00 in 0 W/m2
18:42 37.4 °F 31.8 °F 29.73 in NE 1.0 mph 1.0 mph 80% 0.00 in 0 W/m2
18:48 37.3 °F 31.7 °F 29.72 in NE 1.0 mph 1.0 mph 80% 0.00 in 0 W/m2
18:54 37.1 °F 31.5 °F 29.72 in NE 1.0 mph 1.0 mph 80% 0.00 in 0 W/m2
19:00 36.9 °F 31.3 °F 29.72 in Calm     80% 0.00 in 0 W/m2
19:06 36.9 °F 31.3 °F 29.71 in Calm   1.0 mph 80% 0.00 in 0 W/m2
19:12 36.8 °F 31.2 °F 29.71 in NE 1.0 mph 2.0 mph 80% 0.00 in 0 W/m2
19:18 36.8 °F 31.5 °F 29.71 in NE 1.0 mph 2.0 mph 81% 0.00 in 0 W/m2
19:24 36.8 °F 31.5 °F 29.70 in Calm   1.0 mph 81% 0.00 in 0 W/m2
19:30 36.7 °F 31.4 °F 29.70 in Calm     81% 0.00 in 0 W/m2
19:36 36.7 °F 31.4 °F 29.69 in Calm     81% 0.00 in 0 W/m2
19:42 36.7 °F 31.4 °F 29.69 in Calm     81% 0.00 in 0 W/m2
19:48 36.7 °F 31.4 °F 29.69 in Calm     81% 0.00 in 0 W/m2
19:54 36.7 °F 31.4 °F 29.69 in Calm     81% 0.00 in 0 W/m2
20:00 36.7 °F 31.4 °F 29.68 in Calm     81% 0.00 in 0 W/m2
20:06 36.7 °F 31.4 °F 29.68 in Calm     81% 0.00 in 0 W/m2
20:12 36.7 °F 31.4 °F 29.67 in Calm   1.0 mph 81% 0.00 in 0 W/m2
20:18 36.7 °F 31.4 °F 29.67 in NE 1.0 mph 1.0 mph 81% 0.00 in 0 W/m2
20:24 36.7 °F 31.4 °F 29.67 in Calm     81% 0.00 in 0 W/m2
20:30 36.8 °F 31.5 °F 29.66 in Calm     81% 0.00 in 0 W/m2
20:36 36.8 °F 31.5 °F 29.66 in Calm   2.0 mph 81% 0.00 in 0 W/m2
20:42 36.8 °F 31.5 °F 29.66 in Calm   2.0 mph 81% 0.00 in 0 W/m2
20:48 36.9 °F 31.6 °F 29.66 in Calm   2.0 mph 81% 0.00 in 0 W/m2
20:54 37.0 °F 31.4 °F 29.66 in Calm     80% 0.00 in 0 W/m2
21:00 37.1 °F 31.5 °F 29.65 in Calm     80% 0.00 in 0 W/m2
21:06 37.1 °F 31.8 °F 29.64 in Calm   1.0 mph 81% 0.00 in 0 W/m2
21:12 37.2 °F 31.6 °F 29.64 in NE 1.0 mph 2.0 mph 80% 0.00 in 0 W/m2
21:18 37.3 °F 31.7 °F 29.63 in NE 1.0 mph 2.0 mph 80% 0.00 in 0 W/m2
21:24 37.3 °F 31.7 °F 29.63 in NE 1.0 mph 1.0 mph 80% 0.00 in 0 W/m2
21:30 37.4 °F 31.5 °F 29.63 in NE 1.0 mph 2.0 mph 79% 0.00 in 0 W/m2
21:36 37.5 °F 31.3 °F 29.63 in NE 1.0 mph 2.0 mph 78% 0.00 in 0 W/m2
21:42 37.7 °F 31.1 °F 29.62 in NE 1.0 mph 3.0 mph 77% 0.00 in 0 W/m2
21:48 37.8 °F 31.2 °F 29.62 in NE 1.0 mph 3.0 mph 77% 0.00 in 0 W/m2
21:54 37.8 °F 31.2 °F 29.62 in NE 1.0 mph 2.0 mph 77% 0.00 in 0 W/m2
22:00 37.9 °F 31.0 °F 29.62 in NE 1.0 mph 1.0 mph 76% 0.00 in 0 W/m2
22:06 37.9 °F 31.0 °F 29.62 in NE 1.0 mph 1.0 mph 76% 0.00 in 0 W/m2
22:12 37.9 °F 31.0 °F 29.61 in Calm     76% 0.00 in 0 W/m2
22:18 37.9 °F 31.0 °F 29.61 in Calm     76% 0.00 in 0 W/m2
22:24 38.0 °F 30.8 °F 29.61 in Calm     75% 0.00 in 0 W/m2
22:30 38.0 °F 31.1 °F 29.61 in Calm   1.0 mph 76% 0.00 in 0 W/m2
22:36 37.9 °F 31.0 °F 29.61 in Calm   2.0 mph 76% 0.00 in 0 W/m2
22:42 37.9 °F 31.0 °F 29.61 in Calm     76% 0.00 in 0 W/m2
22:48 37.9 °F 31.3 °F 29.61 in Calm     77% 0.00 in 0 W/m2
22:54 37.8 °F 31.6 °F 29.61 in ENE 1.0 mph 7.0 mph 78% 0.00 in 0 W/m2
23:00 38.2 °F 31.9 °F 29.61 in NE 3.0 mph 5.0 mph 78% 0.00 in 0 W/m2
23:06 38.4 °F 32.5 °F 29.61 in NE 6.0 mph 8.0 mph 79% 0.00 in 0 W/m2
23:12 38.1 °F 32.5 °F 29.61 in East 5.0 mph 5.0 mph 80% 0.11 in 0 W/m2
23:18 37.2 °F 32.2 °F 29.61 in ENE 6.0 mph 13.0 mph 82% 0.17 in 0 W/m2
23:24 36.8 °F 32.4 °F 29.61 in NNE 7.0 mph 14.0 mph 84% 0.13 in 0 W/m2
23:30 36.2 °F 32.1 °F 29.61 in East 6.0 mph 7.0 mph 85% 0.11 in 0 W/m2
23:36 35.8 °F 32.0 °F 29.61 in NE 5.0 mph 7.0 mph 86% 0.13 in 0 W/m2
23:42 35.6 °F 32.1 °F 29.60 in ENE 4.0 mph 5.0 mph 87% 0.08 in 0 W/m2
23:48 35.5 °F 32.0 °F 29.61 in SE 3.0 mph 5.0 mph 87% 0.08 in 0 W/m2
23:54 35.4 °F 31.9 °F 29.61 in NNE 4.0 mph 4.0 mph 87% 0.09 in 0 W/m2
Country Meadow, Clay, NY, USA
Compliments of Weather Underground - 2 mb